createdAt,value
2022-12-05T00:01:22.174Z,3.90
2022-12-05T00:03:54.339Z,3.70
2022-12-05T00:06:25.669Z,4.10
2022-12-05T00:08:56.109Z,4.20
2022-12-05T00:11:28.216Z,3.60
2022-12-05T00:14:03.221Z,3.90
2022-12-05T00:16:34.982Z,3.90
2022-12-05T00:19:06.634Z,3.90
2022-12-05T00:21:38.890Z,3.90
2022-12-05T00:24:11.688Z,3.70
2022-12-05T00:29:14.982Z,3.80
2022-12-05T00:39:17.059Z,3.80
2022-12-05T00:44:19.864Z,3.80
2022-12-05T00:59:25.655Z,3.80
2022-12-05T01:04:27.924Z,4.00
2022-12-05T01:06:59.872Z,3.80
2022-12-05T01:09:29.999Z,3.90
2022-12-05T01:14:32.754Z,3.80
2022-12-05T01:19:34.880Z,3.70
2022-12-05T01:29:38.125Z,3.70
2022-12-05T01:45:15.145Z,3.80
2022-12-05T01:47:45.037Z,3.80
2022-12-05T01:50:15.819Z,3.80
2022-12-05T01:55:20.155Z,3.80
2022-12-05T01:57:51.799Z,3.80
2022-12-05T02:00:24.646Z,3.70
2022-12-05T02:02:59.532Z,3.80
2022-12-05T02:05:32.540Z,3.80
2022-12-05T02:08:05.414Z,3.80
2022-12-05T02:10:39.282Z,3.80
2022-12-05T02:13:21.500Z,3.80
2022-12-05T02:16:02.475Z,3.80
2022-12-05T02:18:45.096Z,3.60
2022-12-05T02:21:57.998Z,3.50
2022-12-05T02:24:56.065Z,3.90
2022-12-05T02:27:49.886Z,4.00
2022-12-05T02:30:24.449Z,3.70
2022-12-05T02:33:06.532Z,3.80
2022-12-05T02:35:52.716Z,3.80
2022-12-05T02:38:30.162Z,3.80
2022-12-05T02:41:09.090Z,3.80
2022-12-05T02:43:44.507Z,3.80
2022-12-05T02:46:21.707Z,3.80
2022-12-05T02:48:54.620Z,3.80
2022-12-05T02:51:28.026Z,3.80
2022-12-05T02:54:00.496Z,3.80
2022-12-05T03:01:35.401Z,3.80
2022-12-05T03:04:08.916Z,3.70
2022-12-05T03:06:44.278Z,3.70
2022-12-05T03:09:19.194Z,3.70
2022-12-05T03:11:53.638Z,3.70
2022-12-05T03:14:25.510Z,3.80
2022-12-05T03:17:02.704Z,3.70
2022-12-05T03:19:39.674Z,3.60
2022-12-05T03:22:12.203Z,3.80
2022-12-05T03:24:44.527Z,3.60
2022-12-05T03:27:24.171Z,3.60
2022-12-05T03:29:58.721Z,3.60
2022-12-05T03:32:40.468Z,3.50
2022-12-05T03:35:17.626Z,3.60
2022-12-05T03:37:52.311Z,3.50
2022-12-05T03:40:30.467Z,3.50
2022-12-05T03:43:09.165Z,3.50
2022-12-05T03:45:42.523Z,3.50
2022-12-05T03:48:21.899Z,3.40
2022-12-05T03:50:54.120Z,3.50
2022-12-05T03:53:29.628Z,3.40
2022-12-05T03:56:04.615Z,3.40
2022-12-05T03:58:38.724Z,3.30
2022-12-05T04:01:11.439Z,3.30
2022-12-05T04:03:51.736Z,3.50
2022-12-05T04:06:27.170Z,3.30
2022-12-05T04:09:01.411Z,3.40
2022-12-05T04:11:38.355Z,3.30
2022-12-05T04:14:14.162Z,3.20
2022-12-05T04:17:01.571Z,3.20
2022-12-05T04:19:51.324Z,3.40
2022-12-05T04:25:05.447Z,3.20
2022-12-05T04:27:43.643Z,3.20
2022-12-05T04:30:17.352Z,3.20
2022-12-05T04:32:50.610Z,3.10
2022-12-05T04:35:28.426Z,2.80
2022-12-05T04:38:04.864Z,3.10
2022-12-05T04:40:40.592Z,3.40
2022-12-05T04:43:12.955Z,3.00
2022-12-05T04:45:46.309Z,3.00
2022-12-05T04:48:20.041Z,3.20
2022-12-05T04:50:55.972Z,3.00
2022-12-05T04:53:28.832Z,3.00
2022-12-05T04:56:03.110Z,3.00
2022-12-05T04:58:34.490Z,3.10
2022-12-05T05:01:10.228Z,2.70
2022-12-05T05:03:45.386Z,2.90
2022-12-05T05:06:18.729Z,2.90
2022-12-05T05:08:53.357Z,2.90
2022-12-05T05:11:26.148Z,3.10
2022-12-05T05:13:56.834Z,2.80
2022-12-05T05:16:29.145Z,2.80
2022-12-05T05:18:59.668Z,2.80
2022-12-05T05:21:34.753Z,2.80
2022-12-05T05:24:05.125Z,2.50
2022-12-05T05:26:37.996Z,2.70
2022-12-05T05:29:09.662Z,2.90
2022-12-05T05:31:40.377Z,2.70
2022-12-05T05:34:10.946Z,2.80
2022-12-05T05:36:43.525Z,2.70
2022-12-05T05:39:16.761Z,2.70
2022-12-05T05:44:17.206Z,2.60
2022-12-05T05:46:47.164Z,2.90
2022-12-05T05:51:50.037Z,3.70
2022-12-05T05:59:20.468Z,2.40
2022-12-05T06:06:53.829Z,2.50
2022-12-05T06:11:54.118Z,2.20
2022-12-05T06:22:00.392Z,2.50
2022-12-05T06:27:00.749Z,2.70
2022-12-05T06:32:04.703Z,2.50
2022-12-05T06:34:35.774Z,2.60
2022-12-05T06:37:08.350Z,2.50
2022-12-05T06:39:38.634Z,2.90
2022-12-05T06:42:08.760Z,3.20
2022-12-05T06:44:38.807Z,2.60
2022-12-05T06:47:08.840Z,2.50
2022-12-05T06:49:39.071Z,2.20
2022-12-05T06:52:11.632Z,1.70
2022-12-05T06:54:41.604Z,2.20
2022-12-05T07:02:12.644Z,2.20
2022-12-05T07:04:42.633Z,2.30
2022-12-05T07:07:15.207Z,2.30
2022-12-05T07:09:54.057Z,2.30
2022-12-05T07:12:24.266Z,3.00
2022-12-05T07:17:24.878Z,2.00
2022-12-05T07:19:56.055Z,2.00
2022-12-05T07:22:28.683Z,2.70
2022-12-05T07:29:59.504Z,1.90
2022-12-05T07:34:59.834Z,2.90
2022-12-05T07:37:32.519Z,2.00
2022-12-05T07:40:02.496Z,1.80
2022-12-05T07:47:33.423Z,1.60
2022-12-05T07:52:36.264Z,1.80
2022-12-05T07:55:07.236Z,1.70
2022-12-05T07:57:37.222Z,2.00
2022-12-05T08:00:08.157Z,2.00
2022-12-05T08:05:12.869Z,1.80
2022-12-05T08:07:45.513Z,1.70
2022-12-05T08:17:46.195Z,1.70
2022-12-05T08:20:17.114Z,1.80
2022-12-05T08:22:49.675Z,2.40
2022-12-05T08:25:19.811Z,2.80
2022-12-05T08:32:50.369Z,1.90
2022-12-05T08:37:53.302Z,2.00
2022-12-05T08:40:23.274Z,1.80
2022-12-05T08:42:53.205Z,1.80
2022-12-05T08:45:23.125Z,2.00
2022-12-05T08:47:53.061Z,2.30
2022-12-05T08:50:22.963Z,2.10
2022-12-05T08:52:55.496Z,1.80
2022-12-05T08:55:25.600Z,2.10
2022-12-05T09:05:29.035Z,1.90
2022-12-05T09:08:02.187Z,1.90
2022-12-05T09:10:32.674Z,2.30
2022-12-05T09:13:02.779Z,2.70
2022-12-05T09:15:32.828Z,2.00
2022-12-05T09:23:05.919Z,5.20
2022-12-05T09:25:36.979Z,2.30
2022-12-05T09:28:07.233Z,2.40
2022-12-05T09:35:42.388Z,2.00
2022-12-05T09:38:14.809Z,2.30
2022-12-05T09:40:46.000Z,2.30
2022-12-05T09:43:27.777Z,2.10
2022-12-05T09:46:04.394Z,2.20
2022-12-05T09:48:35.319Z,2.10
2022-12-05T09:51:06.959Z,2.10
2022-12-05T09:53:42.739Z,2.30
2022-12-05T09:56:23.952Z,2.20
2022-12-05T09:58:55.367Z,2.40
2022-12-05T10:01:41.728Z,2.60
2022-12-05T10:04:36.281Z,2.30
2022-12-05T10:07:13.325Z,2.30
2022-12-05T10:09:56.655Z,2.90
2022-12-05T10:12:50.659Z,2.60
2022-12-05T10:15:27.773Z,2.40
2022-12-05T10:18:02.243Z,2.10
2022-12-05T10:20:34.051Z,2.40
2022-12-05T10:23:07.994Z,2.30
2022-12-05T10:25:41.599Z,2.50
2022-12-05T10:28:18.364Z,2.60
2022-12-05T10:30:51.265Z,3.40
2022-12-05T10:33:25.073Z,2.50
2022-12-05T10:38:29.395Z,2.40
2022-12-05T10:41:04.121Z,2.60
2022-12-05T10:43:37.275Z,2.60
2022-12-05T10:46:10.664Z,2.60
2022-12-05T10:48:45.009Z,2.60
2022-12-05T10:51:18.107Z,2.60
2022-12-05T10:53:49.989Z,2.60
2022-12-05T10:56:42.970Z,2.50
2022-12-05T10:59:15.347Z,2.60
2022-12-05T11:01:52.393Z,2.80
2022-12-05T11:04:34.341Z,2.60
2022-12-05T11:07:06.917Z,2.40
2022-12-05T11:09:39.423Z,2.60
2022-12-05T11:12:19.705Z,2.60
2022-12-05T11:14:59.169Z,2.70
2022-12-05T11:17:33.126Z,2.70
2022-12-05T11:22:34.973Z,2.70
2022-12-05T11:25:28.652Z,2.60
2022-12-05T11:28:02.890Z,2.70
2022-12-05T11:30:33.120Z,2.90
2022-12-05T11:33:23.595Z,2.70
2022-12-05T11:35:57.332Z,2.80
2022-12-05T11:38:32.454Z,2.60
2022-12-05T11:41:14.209Z,2.70
2022-12-05T11:44:08.341Z,2.80
2022-12-05T11:46:47.750Z,2.80
2022-12-05T11:49:43.463Z,2.40
2022-12-05T11:52:25.526Z,2.70
2022-12-05T11:55:05.711Z,2.70
2022-12-05T11:58:03.573Z,2.70
2022-12-05T12:00:44.694Z,2.70
2022-12-05T12:03:33.565Z,2.70
2022-12-05T12:06:18.143Z,2.70
2022-12-05T12:08:57.955Z,2.70
2022-12-05T12:11:35.013Z,2.70
2022-12-05T12:14:11.869Z,2.70
2022-12-05T12:16:56.470Z,2.70
2022-12-05T12:19:51.837Z,2.70
2022-12-05T12:22:42.987Z,2.50
2022-12-05T12:25:26.742Z,2.70
2022-12-05T12:28:10.302Z,2.70
2022-12-05T12:30:56.450Z,2.80
2022-12-05T12:33:35.202Z,2.80
2022-12-05T12:36:16.696Z,2.80
2022-12-05T12:39:18.090Z,2.90
2022-12-05T12:42:09.234Z,2.80
2022-12-05T12:45:02.935Z,2.80
2022-12-05T12:47:46.101Z,2.90
2022-12-05T12:50:26.320Z,2.80
2022-12-05T12:53:24.837Z,2.80
2022-12-05T12:56:03.289Z,2.80
2022-12-05T12:58:46.079Z,2.80
2022-12-05T13:01:26.574Z,2.90
2022-12-05T13:04:02.897Z,2.80
2022-12-05T13:06:42.070Z,2.80
2022-12-05T13:09:21.047Z,2.90
2022-12-05T13:11:54.221Z,2.90
2022-12-05T13:14:27.865Z,2.90
2022-12-05T13:16:59.514Z,2.80
2022-12-05T13:19:37.494Z,2.80
2022-12-05T13:22:11.162Z,2.80
2022-12-05T13:27:19.214Z,2.90
2022-12-05T13:29:54.516Z,3.00
2022-12-05T13:32:34.443Z,3.00
2022-12-05T13:35:12.168Z,3.00
2022-12-05T13:38:03.776Z,3.00
2022-12-05T13:40:49.570Z,3.00
2022-12-05T13:43:23.034Z,2.70
2022-12-05T13:46:07.427Z,3.00
2022-12-05T13:48:40.550Z,3.00
2022-12-05T13:51:14.578Z,2.90
2022-12-05T13:53:50.670Z,3.00
2022-12-05T13:56:30.479Z,2.70
2022-12-05T13:59:01.147Z,3.00
2022-12-05T14:01:55.833Z,3.00
2022-12-05T14:04:40.970Z,3.00
2022-12-05T14:07:12.729Z,3.00
2022-12-05T14:09:57.310Z,3.20
2022-12-05T14:12:58.013Z,3.10
2022-12-05T14:15:37.901Z,3.10
2022-12-05T14:18:15.958Z,3.10
2022-12-05T14:21:01.253Z,2.70
2022-12-05T14:23:55.793Z,3.00
2022-12-05T14:26:55.065Z,3.10
2022-12-05T14:29:39.255Z,3.00
2022-12-05T14:32:25.282Z,3.30
2022-12-05T14:35:05.391Z,3.30
2022-12-05T14:37:38.741Z,3.00
2022-12-05T14:40:23.306Z,3.00
2022-12-05T14:43:02.083Z,2.90
2022-12-05T14:45:36.133Z,3.00
2022-12-05T14:48:09.401Z,3.40
2022-12-05T14:50:43.515Z,0.50
2022-12-05T14:53:36.173Z,3.30
2022-12-05T14:56:17.938Z,3.00
2022-12-05T14:58:55.926Z,2.90
2022-12-05T15:01:29.746Z,2.90
2022-12-05T15:04:17.437Z,3.00
2022-12-05T15:06:55.233Z,2.90
2022-12-05T15:09:48.923Z,2.90
2022-12-05T15:12:22.934Z,2.50
2022-12-05T15:15:02.235Z,2.90
2022-12-05T15:17:40.177Z,3.00
2022-12-05T15:20:18.970Z,2.90
2022-12-05T15:25:30.672Z,2.90
2022-12-05T15:28:03.827Z,2.90
2022-12-05T15:30:41.277Z,2.90
2022-12-05T15:33:15.330Z,2.90
2022-12-05T15:35:51.069Z,2.90
2022-12-05T15:38:27.786Z,2.90
2022-12-05T15:43:33.552Z,2.90
2022-12-05T15:46:24.419Z,2.90
2022-12-05T15:48:55.560Z,2.90
2022-12-05T15:51:31.154Z,2.80
2022-12-05T15:54:08.638Z,2.80
2022-12-05T15:56:42.739Z,2.90
2022-12-05T15:59:18.641Z,2.80
2022-12-05T16:01:55.277Z,2.80
2022-12-05T16:04:31.116Z,2.80
2022-12-05T16:07:05.999Z,2.90
2022-12-05T16:09:41.319Z,2.80
2022-12-05T16:12:26.577Z,2.90
2022-12-05T16:15:01.469Z,2.90
2022-12-05T16:17:43.131Z,2.90
2022-12-05T16:20:15.164Z,2.80
2022-12-05T16:22:48.161Z,2.80
2022-12-05T16:25:21.212Z,2.80
2022-12-05T16:28:00.575Z,2.90
2022-12-05T16:30:32.187Z,2.90
2022-12-05T16:35:49.099Z,2.90
2022-12-05T16:43:45.574Z,2.90
2022-12-05T16:46:45.934Z,2.90
2022-12-05T17:30:49.663Z,2.60
2022-12-05T17:33:22.064Z,2.60
2022-12-05T21:48:24.649Z,1.60
2022-12-05T22:44:15.717Z,0.70
2022-12-05T22:59:31.382Z,0.60
2022-12-05T23:14:35.654Z,0.40
2022-12-05T23:29:39.490Z,0.20
2022-12-05T23:44:47.883Z,0.00
2022-12-05T23:59:51.618Z,0.30
